createdAt,value
2022-09-14T00:00:44.256Z,8.90
2022-09-14T00:02:53.382Z,8.48
2022-09-14T00:04:06.780Z,7.90
2022-09-14T00:05:10.701Z,8.60
2022-09-14T00:06:16.099Z,8.63
2022-09-14T00:07:18.626Z,8.48
2022-09-14T00:08:21.004Z,7.38
2022-09-14T00:09:28.828Z,8.57
2022-09-14T00:10:35.374Z,7.25
2022-09-14T00:13:01.549Z,6.93
2022-09-14T00:14:10.401Z,7.78
2022-09-14T00:15:21.961Z,7.82
2022-09-14T00:16:32.632Z,7.88
2022-09-14T00:17:37.580Z,8.02
2022-09-14T00:18:41.129Z,7.32
2022-09-14T00:19:43.814Z,7.45
2022-09-14T00:20:46.499Z,8.88
2022-09-14T00:21:59.827Z,7.68
2022-09-14T00:23:03.865Z,7.43
2022-09-14T00:24:07.949Z,7.90
2022-09-14T00:25:13.439Z,7.60
2022-09-14T00:26:20.784Z,7.78
2022-09-14T00:27:25.271Z,7.75
2022-09-14T00:28:29.950Z,7.28
2022-09-14T00:29:39.535Z,9.82
2022-09-14T00:30:44.279Z,6.13
2022-09-14T00:31:58.904Z,7.28
2022-09-14T00:33:02.105Z,8.80
2022-09-14T00:34:08.791Z,7.32
2022-09-14T00:35:11.875Z,8.07
2022-09-14T00:36:21.387Z,7.65
2022-09-14T00:37:27.700Z,6.75
2022-09-14T00:38:29.928Z,7.25
2022-09-14T00:39:46.351Z,6.85
2022-09-14T00:41:02.438Z,6.63
2022-09-14T00:42:07.100Z,6.50
2022-09-14T00:43:15.287Z,7.18
2022-09-14T00:44:17.988Z,6.40
2022-09-14T00:45:26.088Z,6.50
2022-09-14T00:46:33.164Z,7.13
2022-09-14T00:47:36.006Z,6.43
2022-09-14T00:48:39.605Z,7.28
2022-09-14T00:49:43.815Z,7.03
2022-09-14T00:50:48.037Z,6.80
2022-09-14T00:52:13.730Z,6.72
2022-09-14T00:53:19.065Z,6.30
2022-09-14T00:54:29.638Z,7.03
2022-09-14T00:55:34.541Z,6.53
2022-09-14T00:56:40.824Z,6.10
2022-09-14T00:57:51.858Z,6.03
2022-09-14T00:58:57.619Z,7.32
2022-09-14T01:00:02.961Z,6.45
2022-09-14T01:01:09.010Z,6.75
2022-09-14T01:02:18.445Z,6.10
2022-09-14T01:03:26.948Z,6.35
2022-09-14T01:04:32.227Z,8.45
2022-09-14T01:06:01.563Z,7.32
2022-09-14T01:07:26.478Z,6.40
2022-09-14T01:09:05.640Z,7.20
2022-09-14T01:10:32.806Z,6.25
2022-09-14T01:12:16.713Z,7.00
2022-09-14T01:13:40.826Z,6.78
2022-09-14T01:14:55.575Z,6.55
2022-09-14T01:16:31.073Z,6.55
2022-09-14T01:18:09.109Z,6.45
2022-09-14T01:19:34.438Z,7.13
2022-09-14T01:20:48.187Z,6.40
2022-09-14T01:21:52.774Z,6.55
2022-09-14T01:23:13.014Z,8.15
2022-09-14T01:24:36.090Z,7.38
2022-09-14T01:25:58.827Z,6.80
2022-09-14T01:27:31.287Z,7.03
2022-09-14T01:29:05.008Z,7.32
2022-09-14T01:30:16.664Z,6.40
2022-09-14T01:31:54.485Z,5.88
2022-09-14T01:33:13.378Z,8.18
2022-09-14T01:34:33.785Z,7.45
2022-09-14T01:35:44.074Z,6.70
2022-09-14T01:36:53.641Z,7.10
2022-09-14T01:37:57.033Z,8.52
2022-09-14T01:39:02.263Z,7.18
2022-09-14T01:40:30.032Z,7.78
2022-09-14T01:42:44.176Z,6.90
2022-09-14T01:43:58.226Z,6.93
2022-09-14T01:45:03.555Z,7.57
2022-09-14T01:46:35.531Z,7.78
2022-09-14T01:47:46.709Z,8.55
2022-09-14T01:49:16.716Z,6.63
2022-09-14T01:51:50.413Z,7.03
2022-09-14T01:53:07.584Z,7.13
2022-09-14T01:54:34.943Z,7.28
2022-09-14T01:56:00.756Z,6.93
2022-09-14T01:57:24.769Z,8.25
2022-09-14T01:59:07.313Z,8.55
2022-09-14T02:00:29.078Z,7.45
2022-09-14T02:01:59.337Z,8.00
2022-09-14T02:03:14.729Z,8.82
2022-09-14T02:04:45.891Z,7.18
2022-09-14T02:05:58.673Z,7.53
2022-09-14T02:07:01.603Z,7.63
2022-09-14T02:08:06.801Z,10.00
2022-09-14T02:09:14.769Z,8.32
2022-09-14T02:10:18.928Z,7.78
2022-09-14T02:11:28.484Z,7.78
2022-09-14T02:12:46.849Z,7.15
2022-09-14T02:13:50.744Z,7.60
2022-09-14T02:16:12.835Z,8.05
2022-09-14T02:17:24.361Z,8.38
2022-09-14T02:18:29.325Z,9.82
2022-09-14T02:19:41.794Z,9.40
2022-09-14T02:21:16.440Z,9.27
2022-09-14T02:22:20.573Z,12.38
2022-09-14T02:23:23.639Z,9.50
2022-09-14T02:24:26.268Z,8.68
2022-09-14T02:25:29.276Z,9.50
2022-09-14T02:26:32.516Z,8.88
2022-09-14T02:27:35.871Z,8.95
2022-09-14T02:28:42.474Z,7.97
2022-09-14T02:29:48.497Z,10.38
2022-09-14T02:31:02.944Z,9.48
2022-09-14T02:32:24.872Z,9.15
2022-09-14T02:34:05.740Z,8.02
2022-09-14T02:35:18.869Z,9.05
2022-09-14T02:36:51.497Z,8.27
2022-09-14T02:38:18.239Z,10.23
2022-09-14T02:39:36.905Z,9.65
2022-09-14T02:40:54.792Z,9.95
2022-09-14T02:42:09.559Z,9.67
2022-09-14T02:43:43.741Z,9.25
2022-09-14T02:44:58.605Z,9.60
2022-09-14T02:46:37.846Z,9.52
2022-09-14T02:47:57.428Z,10.15
2022-09-14T02:49:40.742Z,11.13
2022-09-14T02:50:42.780Z,10.90
2022-09-14T02:52:05.157Z,9.65
2022-09-14T02:53:21.826Z,11.27
2022-09-14T02:54:35.897Z,11.00
2022-09-14T02:55:45.743Z,12.20
2022-09-14T02:56:49.741Z,11.10
2022-09-14T02:58:09.685Z,14.20
2022-09-14T02:59:12.190Z,10.57
2022-09-14T03:00:16.231Z,12.52
2022-09-14T03:01:21.316Z,12.23
2022-09-14T03:02:23.941Z,12.30
2022-09-14T03:03:26.705Z,11.57
2022-09-14T03:04:31.930Z,12.88
2022-09-14T03:05:35.011Z,11.55
2022-09-14T03:06:37.881Z,12.32
2022-09-14T03:07:44.293Z,12.93
2022-09-14T03:08:46.631Z,17.02
2022-09-14T03:09:49.870Z,12.93
2022-09-14T03:10:53.463Z,14.70
2022-09-14T03:11:57.219Z,14.48
2022-09-14T03:13:02.155Z,11.80
2022-09-14T03:14:04.372Z,14.65
2022-09-14T03:15:11.140Z,13.68
2022-09-14T03:16:21.580Z,15.02
2022-09-14T03:17:25.321Z,12.80
2022-09-14T03:18:30.396Z,14.27
2022-09-14T03:19:32.483Z,13.82
2022-09-14T03:20:35.416Z,17.30
2022-09-14T03:21:39.219Z,14.50
2022-09-14T03:22:41.436Z,17.10
2022-09-14T03:23:46.726Z,17.52
2022-09-14T03:24:52.007Z,16.70
2022-09-14T03:25:54.488Z,15.95
2022-09-14T03:26:57.011Z,14.90
2022-09-14T03:28:03.134Z,16.23
2022-09-14T03:29:07.964Z,16.40
2022-09-14T03:30:10.742Z,17.25
2022-09-14T03:31:13.816Z,19.00
2022-09-14T03:32:16.069Z,17.00
2022-09-14T03:33:19.663Z,20.27
2022-09-14T03:34:22.698Z,18.48
2022-09-14T03:35:28.954Z,19.60
2022-09-14T03:36:32.282Z,19.67
2022-09-14T03:37:38.429Z,20.02
2022-09-14T03:38:47.405Z,20.35
2022-09-14T03:39:50.275Z,20.23
2022-09-14T03:40:54.284Z,18.67
2022-09-14T03:41:57.764Z,18.55
2022-09-14T03:43:00.865Z,20.35
2022-09-14T03:44:03.138Z,19.15
2022-09-14T03:45:07.338Z,19.38
2022-09-14T03:46:14.655Z,18.65
2022-09-14T03:47:18.709Z,21.33
2022-09-14T03:48:21.181Z,20.58
2022-09-14T03:49:23.866Z,20.95
2022-09-14T03:50:26.114Z,22.20
2022-09-14T03:51:28.516Z,20.95
2022-09-14T03:52:30.920Z,20.17
2022-09-14T03:53:34.172Z,22.67
2022-09-14T03:54:42.944Z,20.30
2022-09-14T03:55:45.882Z,23.77
2022-09-14T03:56:48.919Z,21.58
2022-09-14T03:57:55.118Z,20.92
2022-09-14T03:58:58.190Z,22.98
2022-09-14T04:00:00.353Z,22.20
2022-09-14T04:01:07.796Z,23.35
2022-09-14T04:02:09.949Z,21.10
2022-09-14T04:03:12.295Z,26.77
2022-09-14T04:04:16.220Z,24.25
2022-09-14T04:05:21.855Z,22.85
2022-09-14T04:06:26.613Z,22.85
2022-09-14T04:07:30.775Z,22.30
2022-09-14T04:08:35.370Z,22.65
2022-09-14T04:09:38.096Z,23.27
2022-09-14T04:10:42.057Z,20.83
2022-09-14T04:11:48.656Z,23.17
2022-09-14T04:12:50.946Z,25.55
2022-09-14T04:13:54.652Z,21.45
2022-09-14T04:14:57.198Z,23.58
2022-09-14T04:16:01.652Z,21.50
2022-09-14T04:17:05.820Z,23.08
2022-09-14T04:18:08.486Z,22.42
2022-09-14T04:19:12.795Z,22.05
2022-09-14T04:20:15.139Z,22.85
2022-09-14T04:21:20.307Z,28.35
2022-09-14T04:22:22.875Z,22.20
2022-09-14T04:23:25.769Z,21.58
2022-09-14T04:24:30.659Z,24.50
2022-09-14T04:25:33.774Z,24.92
2022-09-14T04:26:41.199Z,21.63
2022-09-14T04:27:58.975Z,22.50
2022-09-14T04:29:10.996Z,22.85
2022-09-14T04:30:18.575Z,21.00
2022-09-14T04:31:21.331Z,24.42
2022-09-14T04:32:25.561Z,25.35
2022-09-14T04:33:31.445Z,24.02
2022-09-14T04:34:33.657Z,22.95
2022-09-14T04:35:38.267Z,24.27
2022-09-14T04:36:40.624Z,24.67
2022-09-14T04:37:43.969Z,26.20
2022-09-14T04:38:47.050Z,25.77
2022-09-14T04:39:50.728Z,22.85
2022-09-14T04:40:53.146Z,24.67
2022-09-14T04:41:55.919Z,23.38
2022-09-14T04:42:57.985Z,24.38
2022-09-14T04:44:00.816Z,25.92
2022-09-14T04:45:02.971Z,25.80
2022-09-14T04:46:11.540Z,24.88
2022-09-14T04:47:13.883Z,23.15
2022-09-14T04:48:16.494Z,21.92
2022-09-14T04:49:21.953Z,21.17
2022-09-14T04:50:24.301Z,25.05
2022-09-14T04:51:31.682Z,28.08
2022-09-14T04:52:35.717Z,26.77
2022-09-14T04:53:39.308Z,23.63
2022-09-14T04:54:41.800Z,25.88
2022-09-14T04:55:44.057Z,23.58
2022-09-14T04:56:50.058Z,23.38
2022-09-14T04:57:56.399Z,25.38
2022-09-14T04:59:06.561Z,22.73
2022-09-14T05:00:09.582Z,24.83
2022-09-14T05:01:18.046Z,23.67
2022-09-14T05:02:20.362Z,25.00
2022-09-14T05:03:22.894Z,26.13
2022-09-14T05:04:25.767Z,21.77
2022-09-14T05:05:44.301Z,26.45
2022-09-14T05:08:07.782Z,23.50
2022-09-14T05:09:15.384Z,24.25
2022-09-14T05:10:17.620Z,23.85
2022-09-14T05:11:22.423Z,23.83
2022-09-14T05:12:24.605Z,22.88
2022-09-14T05:13:27.038Z,26.58
2022-09-14T05:14:30.424Z,26.92
2022-09-14T05:15:32.631Z,23.63
2022-09-14T05:16:39.677Z,24.25
2022-09-14T05:17:41.727Z,26.70
2022-09-14T05:18:44.760Z,27.77
2022-09-14T05:19:46.767Z,26.40
2022-09-14T05:20:50.454Z,26.00
2022-09-14T05:21:54.629Z,22.88
2022-09-14T05:22:56.654Z,25.08
2022-09-14T05:24:02.166Z,24.20
2022-09-14T05:25:04.496Z,29.60
2022-09-14T05:26:07.251Z,35.13
2022-09-14T05:27:09.386Z,33.53
2022-09-14T05:28:13.540Z,25.52
2022-09-14T05:29:18.954Z,28.33
2022-09-14T05:30:21.335Z,23.60
2022-09-14T05:31:28.234Z,24.63
2022-09-14T05:32:30.664Z,25.02
2022-09-14T05:33:34.171Z,22.50
2022-09-14T05:36:01.621Z,24.95
2022-09-14T05:37:03.938Z,22.65
2022-09-14T05:38:09.030Z,28.73
2022-09-14T05:39:11.509Z,29.15
2022-09-14T05:40:13.891Z,23.45
2022-09-14T05:41:16.937Z,25.85
2022-09-14T05:42:19.233Z,20.63
2022-09-14T05:43:22.897Z,21.70
2022-09-14T05:44:25.433Z,26.77
2022-09-14T05:45:27.671Z,25.13
2022-09-14T05:46:30.007Z,20.52
2022-09-14T05:47:35.906Z,22.25
2022-09-14T05:48:54.771Z,22.77
2022-09-14T05:51:01.297Z,23.45
2022-09-14T05:52:03.871Z,21.95
2022-09-14T05:53:06.598Z,20.15
2022-09-14T05:54:12.407Z,22.42
2022-09-14T05:55:14.980Z,23.23
2022-09-14T05:56:18.316Z,20.90
2022-09-14T05:57:20.812Z,21.23
2022-09-14T05:58:23.574Z,20.27
2022-09-14T05:59:25.777Z,19.50
2022-09-14T06:00:28.766Z,20.58
2022-09-14T06:01:34.968Z,24.42
2022-09-14T06:02:37.941Z,19.42
2022-09-14T06:03:44.396Z,18.52
2022-09-14T06:04:46.925Z,18.92
2022-09-14T06:05:56.252Z,19.45
2022-09-14T06:07:17.865Z,20.75
2022-09-14T06:08:21.876Z,18.65
2022-09-14T06:09:32.944Z,18.95
2022-09-14T06:10:37.351Z,20.20
2022-09-14T06:11:44.460Z,18.83
2022-09-14T06:12:51.152Z,19.90
2022-09-14T06:13:59.732Z,19.20
2022-09-14T06:15:03.846Z,19.80
2022-09-14T06:16:14.515Z,19.77
2022-09-14T06:17:17.470Z,17.27
2022-09-14T06:18:22.512Z,22.67
2022-09-14T06:19:24.929Z,19.63
2022-09-14T06:20:30.151Z,20.38
2022-09-14T06:21:35.266Z,19.75
2022-09-14T06:22:44.555Z,18.90
2022-09-14T06:23:48.156Z,18.48
2022-09-14T06:24:50.409Z,19.00
2022-09-14T06:26:00.126Z,24.60
2022-09-14T06:27:09.343Z,20.58
2022-09-14T06:28:11.519Z,18.63
2022-09-14T06:29:16.465Z,18.45
2022-09-14T06:30:19.412Z,18.33
2022-09-14T06:31:23.191Z,23.08
2022-09-14T06:32:25.437Z,20.75
2022-09-14T06:33:28.833Z,21.80
2022-09-14T06:34:30.895Z,20.55
2022-09-14T06:35:34.780Z,22.08
2022-09-14T06:36:37.046Z,20.05
2022-09-14T06:37:39.581Z,18.90
2022-09-14T06:38:42.923Z,21.40
2022-09-14T06:39:46.984Z,19.42
2022-09-14T06:40:59.788Z,19.33
2022-09-14T06:42:03.604Z,22.02
2022-09-14T06:43:06.521Z,20.98
2022-09-14T06:44:09.309Z,22.52
2022-09-14T06:45:11.496Z,20.35
2022-09-14T06:46:23.832Z,18.90
2022-09-14T06:47:25.955Z,21.98
2022-09-14T06:48:36.575Z,21.50
2022-09-14T06:49:39.828Z,20.95
2022-09-14T06:50:41.843Z,18.77
2022-09-14T06:51:47.428Z,19.00
2022-09-14T06:52:49.460Z,18.30
2022-09-14T06:53:54.017Z,17.80
2022-09-14T06:55:18.571Z,19.00
2022-09-14T06:56:24.087Z,18.70
2022-09-14T06:57:27.880Z,19.75
2022-09-14T06:58:34.617Z,17.52
2022-09-14T06:59:39.105Z,19.85
2022-09-14T07:00:41.326Z,20.20
2022-09-14T07:01:47.188Z,20.23
2022-09-14T07:02:54.913Z,23.27
2022-09-14T07:04:01.084Z,23.83
2022-09-14T07:05:06.259Z,22.38
2022-09-14T07:06:16.495Z,21.98
2022-09-14T07:07:18.667Z,21.92
2022-09-14T07:08:22.792Z,21.92
2022-09-14T07:09:25.792Z,22.45
2022-09-14T07:10:29.107Z,21.05
2022-09-14T07:11:32.508Z,23.17
2022-09-14T07:12:34.689Z,27.15
2022-09-14T07:13:37.377Z,26.48
2022-09-14T07:14:39.782Z,25.80
2022-09-14T07:15:49.866Z,24.55
2022-09-14T07:16:51.979Z,27.60
2022-09-14T07:17:54.277Z,28.30
2022-09-14T07:18:57.969Z,26.35
2022-09-14T07:20:02.190Z,26.92
2022-09-14T07:21:16.084Z,29.77
2022-09-14T07:22:19.424Z,28.63
2022-09-14T07:23:24.433Z,28.52
2022-09-14T07:24:30.241Z,29.17
2022-09-14T07:25:40.528Z,30.90
2022-09-14T07:26:43.511Z,27.13
2022-09-14T07:27:45.518Z,31.25
2022-09-14T07:28:53.293Z,27.70
2022-09-14T07:29:56.089Z,29.13
2022-09-14T07:30:59.184Z,29.75
2022-09-14T07:32:01.703Z,28.75
2022-09-14T07:33:08.299Z,33.35
2022-09-14T07:34:11.379Z,31.65
2022-09-14T07:35:13.603Z,30.65
2022-09-14T07:36:18.486Z,30.42
2022-09-14T07:37:23.528Z,30.60
2022-09-14T07:38:48.194Z,32.83
2022-09-14T07:39:47.974Z,32.15
2022-09-14T07:40:50.274Z,27.30
2022-09-14T07:41:52.427Z,30.58
2022-09-14T07:42:57.823Z,31.85
2022-09-14T07:44:01.803Z,29.27
2022-09-14T07:45:06.823Z,28.63
2022-09-14T07:46:10.668Z,29.70
2022-09-14T07:47:12.686Z,27.73
2022-09-14T07:48:14.698Z,28.55
2022-09-14T07:49:18.275Z,30.17
2022-09-14T07:50:21.751Z,27.63
2022-09-14T07:51:25.348Z,26.92
2022-09-14T07:52:27.439Z,28.25
2022-09-14T07:53:30.220Z,30.02
2022-09-14T07:54:35.739Z,27.17
2022-09-14T07:55:45.492Z,27.77
2022-09-14T07:56:49.471Z,27.98
2022-09-14T07:57:56.635Z,25.42
2022-09-14T07:59:17.646Z,32.25
2022-09-14T08:00:23.442Z,27.55
2022-09-14T08:01:26.853Z,28.45
2022-09-14T08:02:30.004Z,25.52
2022-09-14T08:03:33.308Z,27.67
2022-09-14T08:04:36.281Z,28.92
2022-09-14T08:05:38.500Z,28.92
2022-09-14T08:06:40.929Z,27.90
2022-09-14T08:07:43.323Z,26.35
2022-09-14T08:08:48.683Z,26.55
2022-09-14T08:09:52.071Z,25.15
2022-09-14T08:10:54.043Z,27.90
2022-09-14T08:11:56.902Z,25.30
2022-09-14T08:12:59.002Z,27.50
2022-09-14T08:14:14.265Z,29.95
2022-09-14T08:15:16.341Z,30.98
2022-09-14T08:16:19.717Z,27.30
2022-09-14T08:17:24.582Z,26.95
2022-09-14T08:18:27.293Z,28.98
2022-09-14T08:19:34.382Z,30.58
2022-09-14T08:20:36.640Z,30.50
2022-09-14T08:21:46.507Z,28.92
2022-09-14T08:22:50.750Z,28.92
2022-09-14T08:23:52.851Z,30.63
2022-09-14T08:24:55.805Z,34.03
2022-09-14T08:26:05.872Z,28.38
2022-09-14T08:27:12.234Z,31.50
2022-09-14T08:28:14.389Z,29.58
2022-09-14T08:29:19.693Z,28.25
2022-09-14T08:30:21.913Z,29.15
2022-09-14T08:31:26.149Z,30.65
2022-09-14T08:32:28.305Z,32.00
2022-09-14T08:33:31.987Z,28.05
2022-09-14T08:34:36.501Z,31.40
2022-09-14T08:35:57.396Z,30.58
2022-09-14T08:37:00.517Z,31.95
2022-09-14T08:38:03.192Z,29.60
2022-09-14T08:39:09.584Z,28.33
2022-09-14T08:40:13.738Z,29.65
2022-09-14T08:41:34.602Z,27.50
2022-09-14T08:42:39.386Z,30.98
2022-09-14T08:43:41.970Z,28.75
2022-09-14T08:44:55.077Z,27.38
2022-09-14T08:46:03.786Z,30.80
2022-09-14T08:47:16.934Z,30.95
2022-09-14T08:48:30.189Z,33.78
2022-09-14T08:49:44.017Z,33.28
2022-09-14T08:50:46.249Z,32.55
2022-09-14T08:51:49.219Z,31.65
2022-09-14T08:52:53.534Z,27.30
2022-09-14T08:53:57.850Z,31.90
2022-09-14T08:55:01.655Z,24.55
2022-09-14T08:56:35.553Z,27.05
2022-09-14T08:57:44.783Z,27.73
2022-09-14T08:58:57.502Z,29.00
2022-09-14T09:00:32.061Z,27.13
2022-09-14T09:01:47.381Z,27.73
2022-09-14T09:03:18.338Z,28.30
2022-09-14T09:04:37.673Z,30.90
2022-09-14T09:05:39.588Z,26.17
2022-09-14T09:06:52.624Z,22.60
2022-09-14T09:08:02.687Z,25.67
2022-09-14T09:09:18.272Z,22.80
2022-09-14T09:10:21.439Z,20.67
2022-09-14T09:11:28.139Z,20.92
2022-09-14T09:12:42.513Z,18.77
2022-09-14T09:13:47.054Z,18.70
2022-09-14T09:14:59.475Z,19.20
2022-09-14T09:16:04.889Z,18.48
2022-09-14T09:17:25.970Z,18.92
2022-09-14T09:18:44.755Z,20.90
2022-09-14T09:20:06.547Z,18.67
2022-09-14T09:21:17.371Z,19.90
2022-09-14T09:22:22.828Z,18.55
2022-09-14T09:23:29.392Z,20.95
2022-09-14T09:24:40.799Z,19.30
2022-09-14T09:26:04.884Z,22.65
2022-09-14T09:27:11.812Z,20.63
2022-09-14T09:28:17.032Z,23.88
2022-09-14T09:29:19.476Z,20.92
2022-09-14T09:30:41.530Z,19.92
2022-09-14T09:31:52.561Z,21.83
2022-09-14T09:33:24.213Z,21.27
2022-09-14T09:34:43.719Z,22.13
2022-09-14T09:35:55.948Z,21.95
2022-09-14T09:37:02.746Z,24.10
2022-09-14T09:38:14.073Z,21.27
2022-09-14T09:39:17.232Z,21.33
2022-09-14T09:40:23.496Z,20.17
2022-09-14T09:41:29.964Z,19.27
2022-09-14T09:42:33.164Z,20.65
2022-09-14T09:43:48.990Z,20.30
2022-09-14T09:45:04.102Z,26.00
2022-09-14T09:46:08.112Z,20.48
2022-09-14T09:47:11.508Z,19.05
2022-09-14T09:48:15.005Z,22.02
2022-09-14T09:49:32.467Z,19.48
2022-09-14T09:50:36.130Z,22.70
2022-09-14T09:51:39.391Z,20.60
2022-09-14T09:52:53.119Z,21.83
2022-09-14T09:54:18.761Z,20.98
2022-09-14T09:55:23.365Z,18.52
2022-09-14T09:56:56.733Z,23.88
2022-09-14T09:58:54.083Z,22.73
2022-09-14T10:00:20.214Z,21.48
2022-09-14T10:01:35.997Z,24.77
2022-09-14T10:02:38.582Z,24.20
2022-09-14T10:03:41.885Z,24.52
2022-09-14T10:04:58.937Z,24.92
2022-09-14T10:06:28.344Z,24.35
2022-09-14T10:07:33.793Z,25.48
2022-09-14T10:08:44.950Z,23.85
2022-09-14T10:09:57.667Z,20.20
2022-09-14T10:11:00.086Z,20.80
2022-09-14T10:12:04.999Z,22.02
2022-09-14T10:13:24.268Z,23.67
2022-09-14T10:14:32.423Z,19.30
2022-09-14T10:15:37.155Z,21.30
2022-09-14T10:16:43.734Z,36.83
2022-09-14T10:18:17.377Z,22.38
2022-09-14T10:19:26.213Z,23.33
2022-09-14T10:20:28.772Z,19.30
2022-09-14T10:21:31.587Z,18.90
2022-09-14T10:22:42.900Z,19.00
2022-09-14T10:23:45.283Z,17.08
2022-09-14T10:24:55.275Z,17.40
2022-09-14T10:26:23.634Z,15.48
2022-09-14T10:27:48.809Z,16.65
2022-09-14T10:28:52.385Z,17.50
2022-09-14T10:29:56.273Z,17.80
2022-09-14T10:31:23.932Z,17.95
2022-09-14T10:32:28.397Z,18.95
2022-09-14T10:33:31.101Z,16.45
2022-09-14T10:34:34.213Z,17.63
2022-09-14T10:35:46.479Z,19.40
2022-09-14T10:36:57.452Z,16.95
2022-09-14T10:38:34.767Z,18.67
2022-09-14T10:39:46.344Z,17.40
2022-09-14T10:40:58.354Z,20.17
2022-09-14T10:42:33.296Z,18.02
2022-09-14T10:43:55.537Z,16.88
2022-09-14T10:45:15.693Z,18.73
2022-09-14T10:46:22.144Z,18.38
2022-09-14T10:48:02.684Z,17.73
2022-09-14T10:49:40.581Z,18.05
2022-09-14T10:51:20.443Z,17.13
2022-09-14T10:52:26.527Z,15.82
2022-09-14T10:53:45.267Z,18.83
2022-09-14T10:54:50.370Z,15.35
2022-09-14T10:56:02.906Z,16.90
2022-09-14T10:57:06.431Z,15.27
2022-09-14T10:58:10.779Z,13.48
2022-09-14T10:59:56.857Z,15.25
2022-09-14T11:01:01.460Z,15.05
2022-09-14T11:02:15.561Z,14.25
2022-09-14T11:03:50.914Z,14.32
2022-09-14T11:05:01.927Z,14.80
2022-09-14T11:06:35.555Z,12.77
2022-09-14T11:07:55.730Z,14.38
2022-09-14T11:09:18.213Z,13.18
2022-09-14T11:10:22.959Z,14.10
2022-09-14T11:11:33.089Z,14.57
2022-09-14T11:12:56.721Z,14.40
2022-09-14T11:14:17.298Z,13.68
2022-09-14T11:15:25.288Z,15.05
2022-09-14T11:16:42.909Z,12.93
2022-09-14T11:17:47.641Z,13.52
2022-09-14T11:18:58.539Z,13.20
2022-09-14T11:20:26.280Z,14.07
2022-09-14T11:21:36.079Z,12.93
2022-09-14T11:23:01.215Z,14.60
2022-09-14T11:24:19.099Z,13.88
2022-09-14T11:25:50.273Z,14.07
2022-09-14T11:27:15.861Z,14.15
2022-09-14T11:28:22.503Z,14.00
2022-09-14T11:29:35.143Z,12.65
2022-09-14T11:30:46.674Z,12.02
2022-09-14T11:32:19.927Z,12.35
2022-09-14T11:33:31.238Z,14.07
2022-09-14T11:34:39.218Z,17.10
2022-09-14T11:35:50.161Z,17.15
2022-09-14T11:37:18.090Z,12.73
2022-09-14T11:38:28.684Z,16.40
2022-09-14T11:39:43.780Z,11.77
2022-09-14T11:41:14.078Z,12.25
2022-09-14T11:42:26.546Z,12.90
2022-09-14T11:43:38.564Z,14.18
2022-09-14T11:44:50.875Z,11.63
2022-09-14T11:46:06.349Z,15.57
2022-09-14T11:47:28.979Z,12.70
2022-09-14T11:48:43.168Z,12.48
2022-09-14T11:50:03.911Z,11.02
2022-09-14T11:51:20.578Z,10.13
2022-09-14T11:52:30.520Z,10.25
2022-09-14T11:53:35.941Z,8.60
2022-09-14T11:54:46.037Z,12.38
2022-09-14T11:55:51.008Z,9.77
2022-09-14T11:56:58.470Z,9.60
2022-09-14T11:58:04.163Z,13.23
2022-09-14T11:59:08.042Z,11.00
2022-09-14T12:00:43.385Z,9.90
2022-09-14T12:01:45.467Z,12.38
2022-09-14T12:03:00.913Z,9.85
2022-09-14T12:04:18.741Z,12.77
2022-09-14T12:05:20.770Z,12.55
2022-09-14T12:06:34.573Z,11.10
2022-09-14T12:07:42.732Z,12.60
2022-09-14T12:08:44.961Z,12.68
2022-09-14T12:09:47.556Z,9.70
2022-09-14T12:10:59.716Z,10.98
2022-09-14T12:12:03.623Z,9.20
2022-09-14T12:13:08.679Z,9.02
2022-09-14T12:14:29.816Z,9.77
2022-09-14T12:15:41.360Z,9.07
2022-09-14T12:17:17.232Z,10.75
2022-09-14T12:18:28.244Z,9.40
2022-09-14T12:19:32.512Z,8.18
2022-09-14T12:20:39.371Z,10.43
2022-09-14T12:21:41.911Z,9.50
2022-09-14T12:22:48.169Z,8.80
2022-09-14T12:23:58.043Z,9.82
2022-09-14T12:25:16.490Z,8.45
2022-09-14T12:26:18.984Z,10.10
2022-09-14T12:27:31.304Z,9.35
2022-09-14T12:28:39.134Z,8.35
2022-09-14T12:29:41.298Z,10.50
2022-09-14T12:30:45.550Z,9.40
2022-09-14T12:31:58.979Z,9.57
2022-09-14T12:33:02.198Z,11.25
2022-09-14T12:34:06.212Z,9.75
2022-09-14T12:35:32.959Z,9.45
2022-09-14T12:36:39.767Z,9.50
2022-09-14T12:37:42.310Z,8.55
2022-09-14T12:38:50.166Z,10.25
2022-09-14T12:40:33.907Z,8.68
2022-09-14T12:41:36.179Z,9.02
2022-09-14T12:42:40.075Z,9.70
2022-09-14T12:43:49.432Z,10.43
2022-09-14T12:44:52.749Z,10.50
2022-09-14T12:46:13.638Z,10.40
2022-09-14T12:47:24.758Z,13.07
2022-09-14T12:48:48.332Z,12.07
2022-09-14T12:49:53.412Z,10.23
2022-09-14T12:50:55.625Z,12.45
2022-09-14T12:52:03.652Z,8.70
2022-09-14T12:53:28.659Z,10.73
2022-09-14T12:54:43.278Z,9.85
2022-09-14T12:55:57.422Z,9.35
2022-09-14T12:57:14.460Z,9.35
2022-09-14T12:58:38.464Z,10.68
2022-09-14T13:00:14.676Z,10.35
2022-09-14T13:01:55.016Z,11.93
2022-09-14T13:03:18.200Z,11.95
2022-09-14T13:04:32.590Z,10.90
2022-09-14T13:05:35.037Z,10.02
2022-09-14T13:06:45.279Z,10.05
2022-09-14T13:07:47.489Z,11.32
2022-09-14T13:08:56.864Z,10.82
2022-09-14T13:10:00.820Z,12.23
2022-09-14T13:11:02.962Z,11.90
2022-09-14T13:12:11.024Z,9.60
2022-09-14T13:13:23.300Z,9.47
2022-09-14T13:14:30.862Z,10.73
2022-09-14T13:15:37.517Z,10.07
2022-09-14T13:16:44.985Z,10.90
2022-09-14T13:18:18.551Z,12.20
2022-09-14T13:19:29.726Z,10.93
2022-09-14T13:20:35.554Z,10.32
2022-09-14T13:21:47.547Z,9.10
2022-09-14T13:22:49.824Z,11.18
2022-09-14T13:23:52.343Z,10.82
2022-09-14T13:24:54.663Z,13.02
2022-09-14T13:25:57.480Z,10.10
2022-09-14T13:27:02.917Z,10.07
2022-09-14T13:28:13.157Z,10.95
2022-09-14T13:29:16.227Z,13.38
2022-09-14T13:30:21.966Z,11.35
2022-09-14T13:31:32.101Z,11.05
2022-09-14T13:32:39.434Z,11.00
2022-09-14T13:33:48.989Z,12.02
2022-09-14T13:34:52.812Z,10.38
2022-09-14T13:36:01.470Z,11.63
2022-09-14T13:37:04.958Z,12.57
2022-09-14T13:38:15.447Z,10.35
2022-09-14T13:39:25.046Z,9.85
2022-09-14T13:40:30.330Z,13.35
2022-09-14T13:41:32.892Z,14.77
2022-09-14T13:42:35.303Z,9.45
2022-09-14T13:43:38.065Z,11.82
2022-09-14T13:44:45.518Z,12.55
2022-09-14T13:45:50.068Z,11.25
2022-09-14T13:46:53.919Z,11.20
2022-09-14T13:47:56.479Z,11.32
2022-09-14T13:48:59.125Z,10.77
2022-09-14T13:50:01.455Z,12.38
2022-09-14T13:51:05.476Z,11.40
2022-09-14T13:53:00.113Z,10.48
2022-09-14T13:53:59.182Z,10.82
2022-09-14T13:55:43.037Z,12.18
2022-09-14T13:56:47.519Z,10.18
2022-09-14T13:58:09.175Z,12.98
2022-09-14T13:59:17.427Z,12.50
2022-09-14T14:00:22.811Z,12.52
2022-09-14T14:01:28.045Z,11.25
2022-09-14T14:02:36.648Z,14.45
2022-09-14T14:03:43.108Z,14.68
2022-09-14T14:04:48.623Z,12.48
2022-09-14T14:05:50.720Z,15.23
2022-09-14T14:07:02.366Z,13.02
2022-09-14T14:08:05.042Z,13.98
2022-09-14T14:09:09.765Z,14.68
2022-09-14T14:10:28.449Z,13.68
2022-09-14T14:12:37.904Z,14.88
2022-09-14T14:13:40.083Z,15.95
2022-09-14T14:14:42.326Z,17.40
2022-09-14T14:15:44.732Z,16.23
2022-09-14T14:17:22.634Z,13.88
2022-09-14T14:18:32.180Z,22.42
2022-09-14T14:19:34.208Z,15.70
2022-09-14T14:20:38.252Z,16.25
2022-09-14T14:21:42.741Z,17.77
2022-09-14T14:22:58.511Z,18.27
2022-09-14T14:24:26.862Z,17.95
2022-09-14T14:25:31.947Z,17.42
2022-09-14T14:26:36.900Z,25.95
2022-09-14T14:27:47.210Z,18.77
2022-09-14T14:28:49.348Z,24.05
2022-09-14T14:29:53.056Z,20.65
2022-09-14T14:30:57.651Z,18.85
2022-09-14T14:32:07.434Z,21.75
2022-09-14T14:33:14.201Z,16.38
2022-09-14T14:34:30.604Z,18.90
2022-09-14T14:35:33.006Z,20.92
2022-09-14T14:36:36.240Z,19.60
2022-09-14T14:37:38.295Z,22.30
2022-09-14T14:38:43.080Z,18.63
2022-09-14T14:39:49.438Z,18.33
2022-09-14T14:40:55.446Z,18.23
2022-09-14T14:41:58.106Z,15.02
2022-09-14T14:43:03.688Z,17.73
2022-09-14T14:44:10.543Z,16.90
2022-09-14T14:45:26.926Z,20.35
2022-09-14T14:46:30.719Z,20.00
2022-09-14T14:47:34.924Z,17.65
2022-09-14T14:48:38.686Z,13.98
2022-09-14T14:49:41.108Z,20.30
2022-09-14T14:50:46.558Z,18.27
2022-09-14T14:51:49.044Z,17.05
2022-09-14T14:52:51.949Z,15.35
2022-09-14T14:53:54.078Z,18.10
2022-09-14T14:54:56.126Z,17.33
2022-09-14T14:55:58.485Z,15.68
2022-09-14T14:57:02.204Z,13.77
2022-09-14T14:58:07.401Z,14.05
2022-09-14T14:59:17.003Z,32.00
2022-09-14T15:00:22.118Z,25.70
2022-09-14T15:01:24.424Z,24.20
2022-09-14T15:02:28.972Z,21.65
2022-09-14T15:03:33.809Z,19.15
2022-09-14T15:04:35.883Z,25.35
2022-09-14T15:05:48.417Z,15.85
2022-09-14T15:06:57.518Z,16.65
2022-09-14T15:09:01.892Z,16.65